Time;durP1;ratioP1;P1;durP2;ratioP2;P2;SDS_P1;SDS_P2;PMS_P1;PMS_P2;Temp;Humidity;BMP_temperature;BMP_pressure;BME280_temperature;BME280_humidity;BME280_pressure;Samples;Min_cycle;Max_cycle;Signal;HPM_P1;HPM_P2
2022/08/09 00:01:58;;;;;;;26.38;4.65;;;;;;;19.05;92.13;98585.72;5013565;28;20117;-58
2022/08/09 00:04:24;;;;;;;31.70;4.88;;;;;;;18.99;93.97;98588.75;5011619;28;20038;-58
2022/08/09 00:06:49;;;;;;;33.08;5.30;;;;;;;19.09;93.22;98588.16;5010316;28;20030;-58
2022/08/09 00:09:16;;;;;;;28.75;4.68;;;;;;;19.06;92.08;98587.41;5013959;28;20021;-59
2022/08/09 00:11:43;;;;;;;28.90;5.18;;;;;;;18.85;92.75;98588.81;5012640;28;20510;-58
2022/08/09 00:14:08;;;;;;;26.92;4.78;;;;;;;18.92;93.17;98584.84;5011486;28;20079;-58
2022/08/09 00:16:34;;;;;;;29.52;4.95;;;;;;;18.88;90.39;98588.63;5013005;28;20045;-59
2022/08/09 00:19:00;;;;;;;31.42;5.07;;;;;;;18.83;91.47;98596.00;5009342;28;20032;-58
2022/08/09 00:21:26;;;;;;;23.00;4.57;;;;;;;19.01;90.33;98594.78;5011284;28;20463;-58
2022/08/09 00:23:51;;;;;;;37.42;5.78;;;;;;;19.07;91.05;98590.91;5012998;28;20567;-58
2022/08/09 00:26:17;;;;;;;31.45;5.15;;;;;;;18.91;91.03;98590.22;5010613;28;20831;-58
2022/08/09 00:28:42;;;;;;;63.22;7.95;;;;;;;18.93;92.07;98585.66;5011529;28;20438;-58
2022/08/09 00:31:07;;;;;;;41.97;5.97;;;;;;;18.81;93.33;98590.81;5010172;28;20044;-58
2022/08/09 00:33:34;;;;;;;26.58;4.80;;;;;;;18.94;93.74;98585.56;5010132;28;20855;-59
2022/08/09 00:36:00;;;;;;;35.00;5.70;;;;;;;18.80;93.43;98588.25;5011493;28;20155;-59
2022/08/09 00:38:26;;;;;;;26.17;4.88;;;;;;;18.79;93.22;98591.84;5010919;28;20113;-59
2022/08/09 00:40:52;;;;;;;30.45;4.80;;;;;;;18.63;96.02;98587.53;5013026;28;20052;-59
2022/08/09 00:43:18;;;;;;;33.35;5.10;;;;;;;18.69;95.30;98588.94;5010403;28;20037;-58
2022/08/09 00:45:44;;;;;;;30.15;4.90;;;;;;;18.73;96.35;98589.59;5010949;28;20403;-58
2022/08/09 00:48:09;;;;;;;37.10;5.60;;;;;;;18.68;98.08;98582.81;5011824;28;20099;-58
2022/08/09 00:50:35;;;;;;;33.13;5.22;;;;;;;18.67;98.08;98594.34;5013594;28;20064;-58
2022/08/09 00:53:01;;;;;;;31.75;5.15;;;;;;;18.73;97.64;98597.50;5011778;28;20028;-58
2022/08/09 00:55:26;;;;;;;27.45;4.85;;;;;;;18.71;97.96;98599.41;5011415;28;20174;-58
2022/08/09 00:57:52;;;;;;;32.55;5.32;;;;;;;18.66;98.57;98597.91;5010995;28;20729;-59
2022/08/09 01:00:17;;;;;;;33.30;5.55;;;;;;;18.56;99.46;98590.69;5010295;28;20025;-58
2022/08/09 01:03:08;;;;;;;26.63;4.63;;;;;;;18.74;98.26;98600.06;4992647;28;20726;-58
2022/08/09 01:05:39;;;;;;;31.42;4.90;;;;;;;18.41;100.00;98601.28;5016291;28;20479;-58
2022/08/09 01:08:33;;;;;;;27.48;4.97;;;;;;;18.47;100.00;98603.53;5010543;28;20030;-58
2022/08/09 01:11:18;;;;;;;29.63;5.00;;;;;;;18.58;100.00;98605.50;5010839;28;20125;-59
2022/08/09 01:13:59;;;;;;;32.60;5.20;;;;;;;18.53;100.00;98607.59;5013284;28;20571;-58
2022/08/09 01:16:29;;;;;;;32.95;5.32;;;;;;;18.30;100.00;98601.94;5012209;28;20136;-58
2022/08/09 01:18:59;;;;;;;27.83;4.82;;;;;;;18.48;100.00;98609.66;5011411;28;20298;-59
2022/08/09 01:21:43;;;;;;;29.80;4.95;;;;;;;18.28;100.00;98603.84;5012456;28;20065;-57
2022/08/09 01:24:15;;;;;;;26.95;4.80;;;;;;;18.13;100.00;98609.25;5012528;28;20057;-59
2022/08/09 01:26:53;;;;;;;29.85;5.03;;;;;;;18.14;100.00;98611.81;5009198;28;20041;-58
2022/08/09 01:29:26;;;;;;;29.27;5.35;;;;;;;18.11;100.00;98615.47;5012410;28;20051;-58
2022/08/09 01:31:56;;;;;;;34.95;5.40;;;;;;;18.13;100.00;98609.25;5011612;28;20051;-58
2022/08/09 01:34:25;;;;;;;26.48;4.47;;;;;;;17.96;100.00;98612.91;5010706;28;20022;-58
2022/08/09 01:36:52;;;;;;;26.55;4.80;;;;;;;18.13;100.00;98615.38;5009287;28;20634;-58
2022/08/09 01:39:20;;;;;;;30.27;4.88;;;;;;;17.99;100.00;98612.75;5014069;28;20387;-58
2022/08/09 01:41:47;;;;;;;36.67;5.60;;;;;;;18.08;100.00;98617.44;5013549;28;20046;-58
2022/08/09 01:44:15;;;;;;;27.13;4.95;;;;;;;18.13;100.00;98615.38;5014140;28;20033;-58
2022/08/09 01:46:42;;;;;;;30.92;5.05;;;;;;;17.97;100.00;98612.00;5014174;28;20042;-60
2022/08/09 01:49:13;;;;;;;30.60;5.13;;;;;;;17.99;100.00;98612.75;5014515;28;20021;-58
2022/08/09 01:51:54;;;;;;;34.78;5.80;;;;;;;17.66;100.00;98613.81;5012897;28;20414;-58
2022/08/09 01:54:24;;;;;;;29.10;4.97;;;;;;;17.74;100.00;98619.50;5013958;28;20587;-58
2022/08/09 01:56:51;;;;;;;35.58;5.97;;;;;;;17.79;100.00;98622.72;5014394;28;20702;-58
2022/08/09 01:59:18;;;;;;;27.67;5.05;;;;;;;17.76;100.00;98620.25;5015082;28;20033;-58
2022/08/09 02:01:47;;;;;;;32.45;5.53;;;;;;;17.54;100.00;98623.31;5013720;28;20169;-58
2022/08/09 02:04:14;;;;;;;30.17;4.93;;;;;;;17.76;100.00;98627.31;5013847;28;20021;-58
2022/08/09 02:09:29;;;;;;;34.65;5.32;;;;;;;17.47;100.00;98627.25;5013457;28;20032;-58
2022/08/09 02:11:56;;;;;;;34.65;5.43;;;;;;;17.46;100.00;98623.78;5014434;28;20048;-58
2022/08/09 02:14:24;;;;;;;35.85;5.07;;;;;;;17.58;100.00;98634.53;5013191;28;20545;-58
2022/08/09 02:16:53;;;;;;;31.00;4.85;;;;;;;17.56;100.00;98628.50;5013481;28;20060;-58
2022/08/09 02:19:18;;;;;;;30.30;5.15;;;;;;;17.60;100.00;98633.50;5014289;28;20037;-58
2022/08/09 02:21:51;;;;;;;27.15;4.97;;;;;;;17.62;100.00;98630.78;5011909;28;20030;-58
2022/08/09 02:24:21;;;;;;;26.63;4.90;;;;;;;17.73;100.00;98636.25;5012467;28;20033;-58
2022/08/09 02:26:50;;;;;;;31.80;5.35;;;;;;;17.61;100.00;98635.22;5011327;28;20033;-58
2022/08/09 02:29:22;;;;;;;43.92;5.85;;;;;;;17.56;100.00;98636.44;5013831;28;20036;-58
2022/08/09 02:31:50;;;;;;;31.60;5.22;;;;;;;17.34;100.00;98642.97;5012601;28;20834;-58
2022/08/09 02:34:23;;;;;;;40.30;5.85;;;;;;;17.55;100.00;98635.56;5011538;28;20131;-58
2022/08/09 02:36:53;;;;;;;29.98;5.20;;;;;;;17.39;100.00;98642.66;5014306;28;20045;-60
2022/08/09 02:39:23;;;;;;;35.33;5.63;;;;;;;17.68;100.00;98652.38;5011787;28;20106;-58
2022/08/09 02:42:12;;;;;;;38.83;5.45;;;;;;;17.34;100.00;98645.59;5010329;28;20071;-58
2022/08/09 02:44:41;;;;;;;28.02;5.00;;;;;;;17.46;100.00;98642.25;5012960;28;20399;-58
2022/08/09 02:47:10;;;;;;;38.38;5.50;;;;;;;17.32;100.00;98644.84;5014441;28;20072;-58
2022/08/09 02:49:54;;;;;;;33.75;5.22;;;;;;;17.30;100.00;98646.72;5014037;28;20661;-58
2022/08/09 02:52:24;;;;;;;37.47;5.85;;;;;;;17.19;100.00;98641.22;5011176;28;20089;-58
2022/08/09 02:54:51;;;;;;;31.60;4.88;;;;;;;17.25;100.00;98640.84;5013881;28;20032;-59
2022/08/09 02:57:18;;;;;;;29.98;4.95;;;;;;;17.08;100.00;98636.56;5013393;28;20105;-58
2022/08/09 02:59:44;;;;;;;29.23;5.35;;;;;;;17.32;100.00;98632.50;5012762;28;20033;-59
2022/08/09 03:02:13;;;;;;;33.45;5.32;;;;;;;17.25;100.00;98635.59;5010802;28;20045;-58
2022/08/09 03:04:39;;;;;;;38.97;5.47;;;;;;;17.17;100.00;98632.53;5012068;28;20064;-59
2022/08/09 03:07:06;;;;;;;39.13;5.88;;;;;;;17.09;100.00;98631.22;5013255;28;20530;-58
2022/08/09 03:09:32;;;;;;;32.20;5.40;;;;;;;17.23;100.00;98626.91;5012149;28;20017;-59
2022/08/09 03:11:58;;;;;;;35.20;5.43;;;;;;;17.25;100.00;98635.59;5009664;28;20119;-58
2022/08/09 03:14:25;;;;;;;27.95;5.03;;;;;;;17.22;100.00;98634.00;5012216;28;20124;-58
2022/08/09 03:16:53;;;;;;;31.88;4.90;;;;;;;17.19;100.00;98633.31;5013615;28;20033;-59
2022/08/09 03:19:21;;;;;;;28.40;5.00;;;;;;;17.05;100.00;98632.31;5013254;28;20022;-58
2022/08/09 03:21:49;;;;;;;32.40;5.32;;;;;;;17.13;100.00;98634.53;5011009;28;20029;-58
2022/08/09 03:24:17;;;;;;;29.85;4.95;;;;;;;17.22;100.00;98643.66;5013832;28;20056;-58
2022/08/09 03:26:43;;;;;;;38.80;5.72;;;;;;;17.01;100.00;98638.69;5010551;28;20133;-58
2022/08/09 03:29:10;;;;;;;36.35;5.80;;;;;;;16.87;100.00;98634.22;5014190;28;20113;-58
2022/08/09 03:31:38;;;;;;;30.13;5.13;;;;;;;17.16;100.00;98642.22;5011391;28;20038;-58
2022/08/09 03:34:04;;;;;;;33.80;5.18;;;;;;;17.07;100.00;98640.97;5011462;28;20630;-58
2022/08/09 03:36:30;;;;;;;32.35;5.15;;;;;;;17.03;100.00;98643.88;5012987;28;20044;-58
2022/08/09 03:38:56;;;;;;;38.28;5.28;;;;;;;16.90;100.00;98649.00;5012109;28;20041;-58
2022/08/09 03:41:21;;;;;;;38.83;5.97;;;;;;;16.75;100.00;98651.53;5009773;28;20848;-58
2022/08/09 03:43:46;;;;;;;31.50;5.15;;;;;;;16.93;100.00;98649.69;5013976;28;20099;-58
2022/08/09 03:46:12;;;;;;;29.35;5.07;;;;;;;16.84;100.00;98654.63;5012221;28;20039;-58
2022/08/09 03:48:38;;;;;;;31.83;5.25;;;;;;;16.94;100.00;98655.78;5013175;28;20136;-57
2022/08/09 03:51:07;;;;;;;35.20;5.60;;;;;;;16.98;100.00;98651.19;5004114;28;20112;-58
2022/08/09 03:53:35;;;;;;;26.77;4.97;;;;;;;17.03;100.00;98655.25;5012312;28;20546;-59
2022/08/09 03:56:00;;;;;;;42.08;5.88;;;;;;;16.94;100.00;98650.50;5011770;28;20080;-58
2022/08/09 03:58:26;;;;;;;26.90;5.05;;;;;;;16.97;100.00;98655.63;5012926;28;20755;-58
2022/08/09 04:00:53;;;;;;;26.15;5.05;;;;;;;16.46;100.00;98655.75;5012264;28;20080;-58
2022/08/09 04:03:19;;;;;;;31.30;5.30;;;;;;;16.73;100.00;98653.41;5010107;28;20365;-58
2022/08/09 04:05:45;;;;;;;28.52;5.05;;;;;;;16.73;100.00;98657.81;5012197;28;20038;-58
2022/08/09 04:08:11;;;;;;;35.67;5.38;;;;;;;16.65;100.00;98658.25;5013983;28;20033;-58
2022/08/09 04:10:36;;;;;;;35.75;5.32;;;;;;;17.00;100.00;98662.50;5012401;28;20401;-58
2022/08/09 04:13:08;;;;;;;38.28;5.85;;;;;;;16.94;100.00;98661.06;5013042;28;20087;-58
2022/08/09 04:15:34;;;;;;;35.00;5.47;;;;;;;16.79;100.00;98661.91;5011719;28;20036;-59
2022/08/09 04:18:00;;;;;;;35.28;5.55;;;;;;;17.03;100.00;98665.81;5011848;28;20109;-58
2022/08/09 04:20:25;;;;;;;32.40;5.05;;;;;;;17.01;100.00;98672.13;5010529;28;20117;-58
2022/08/09 04:22:50;;;;;;;28.83;4.95;;;;;;;16.77;100.00;98676.00;5013371;28;20018;-58
2022/08/09 04:25:16;;;;;;;38.47;5.75;;;;;;;17.13;100.00;98680.16;5012529;28;20647;-59
2022/08/09 04:27:41;;;;;;;28.83;4.93;;;;;;;17.37;100.00;98671.78;5011635;28;20022;-60
2022/08/09 04:30:13;;;;;;;38.00;5.78;;;;;;;17.13;100.00;98674.06;5011194;28;20022;-57
2022/08/09 04:32:39;;;;;;;23.60;4.47;;;;;;;17.15;100.00;98677.47;5012979;28;20033;-58
2022/08/09 04:35:06;;;;;;;36.95;5.60;;;;;;;17.18;100.00;98679.06;5013136;28;20688;-58
2022/08/09 04:37:32;;;;;;;33.20;5.03;;;;;;;17.66;100.00;98682.41;5010521;28;20083;-58
2022/08/09 04:39:57;;;;;;;30.35;5.18;;;;;;;17.44;100.00;98686.31;5012235;28;20619;-58
2022/08/09 04:42:28;;;;;;;32.38;5.40;;;;;;;17.32;100.00;98692.31;5010332;28;20048;-58
2022/08/09 04:44:53;;;;;;;23.65;4.60;;;;;;;17.69;100.00;98691.00;5010138;28;20022;-58
2022/08/09 04:47:18;;;;;;;28.17;4.85;;;;;;;17.56;100.00;98689.19;5012037;28;20064;-58
2022/08/09 04:49:44;;;;;;;26.65;5.22;;;;;;;17.39;100.00;98696.28;5011847;28;20029;-60
2022/08/09 04:52:09;;;;;;;24.92;4.60;;;;;;;17.81;100.00;98688.56;5011507;28;20037;-58
2022/08/09 04:54:35;;;;;;;36.20;5.45;;;;;;;17.98;100.00;98699.00;5011781;28;20064;-58
2022/08/09 04:57:00;;;;;;;24.48;4.85;;;;;;;18.07;100.00;98700.25;5010795;28;20103;-58
2022/08/09 04:59:26;;;;;;;22.35;4.38;;;;;;;18.04;100.00;98698.63;5009570;28;20116;-59
2022/08/09 05:01:51;;;;;;;25.42;4.80;;;;;;;18.07;100.00;98700.25;5011036;28;20510;-59
2022/08/09 05:04:16;;;;;;;25.80;4.50;;;;;;;18.48;100.00;98704.75;5014339;28;20395;-59
2022/08/09 05:06:42;;;;;;;34.45;5.93;;;;;;;18.01;100.00;98711.16;5007507;28;20124;-60
2022/08/09 05:09:07;;;;;;;26.67;4.90;;;;;;;18.44;100.00;98708.53;5008356;28;20060;-59
2022/08/09 05:11:32;;;;;;;27.55;5.05;;;;;;;18.14;100.00;98717.41;5008467;28;20069;-59
2022/08/09 05:13:58;;;;;;;24.83;5.05;;;;;;;18.24;100.00;98722.97;5009759;28;20079;-59
2022/08/09 05:16:23;;;;;;;20.10;4.30;;;;;;;18.87;100.00;98724.38;5010711;28;20033;-59
2022/08/09 05:18:49;;;;;;;31.60;5.78;;;;;;;18.52;100.00;98732.69;5011223;28;20021;-61
2022/08/09 05:21:15;;;;;;;20.80;4.97;;;;;;;18.38;100.00;98730.03;5010355;28;20044;-60
2022/08/09 05:23:41;;;;;;;25.52;4.53;;;;;;;19.23;100.00;98728.25;5009572;28;20488;-59
2022/08/09 05:26:06;;;;;;;25.27;4.55;;;;;;;19.03;100.00;98722.44;5008243;28;20045;-59
2022/08/09 05:28:32;;;;;;;24.63;4.70;;;;;;;19.51;99.04;98726.44;5010358;28;20021;-58
2022/08/09 05:30:57;;;;;;;36.25;5.80;;;;;;;19.29;99.31;98732.28;5010424;28;20104;-59
2022/08/09 05:33:22;;;;;;;21.33;4.25;;;;;;;19.35;97.60;98726.59;5012274;28;20033;-58
2022/08/09 05:35:48;;;;;;;24.23;4.72;;;;;;;19.27;95.54;98727.09;5010187;28;20150;-58
2022/08/09 05:38:13;;;;;;;25.45;4.70;;;;;;;19.40;93.07;98724.50;5010752;28;20106;-59
2022/08/09 05:40:39;;;;;;;21.83;4.18;;;;;;;19.10;96.69;98727.31;5009797;28;20044;-59
2022/08/09 05:43:06;;;;;;;31.55;5.38;;;;;;;20.02;88.80;98737.16;5010414;28;20120;-58
2022/08/09 05:45:31;;;;;;;21.98;4.50;;;;;;;20.72;79.94;98735.88;5008403;28;20128;-59
2022/08/09 05:47:56;;;;;;;28.73;5.00;;;;;;;22.20;67.25;98738.28;5011205;28;20105;-58
2022/08/09 05:50:24;;;;;;;25.10;4.55;;;;;;;23.12;62.67;98731.03;5008758;28;20037;-59
2022/08/09 05:52:49;;;;;;;18.60;3.80;;;;;;;24.67;53.23;98733.19;5009836;28;20022;-59
2022/08/09 05:55:15;;;;;;;21.25;4.35;;;;;;;25.64;48.33;98737.03;5008604;28;20026;-59
2022/08/09 05:57:40;;;;;;;25.15;4.70;;;;;;;26.19;45.95;98736.44;5012026;28;20044;-60
2022/08/09 06:00:06;;;;;;;27.15;4.82;;;;;;;28.17;41.87;98730.44;5009903;28;20109;-58
2022/08/09 06:02:32;;;;;;;20.95;4.10;;;;;;;29.10;39.18;98731.59;5009748;28;20021;-60
2022/08/09 06:04:58;;;;;;;16.63;3.95;;;;;;;29.61;37.46;98729.69;5008180;28;20025;-60
2022/08/09 06:07:23;;;;;;;22.70;4.38;;;;;;;27.83;40.38;98739.22;5009312;28;20068;-60
2022/08/09 06:09:49;;;;;;;18.45;3.92;;;;;;;29.65;38.20;98733.75;5009513;28;20534;-61
2022/08/09 06:12:15;;;;;;;16.23;3.70;;;;;;;30.51;35.24;98735.03;5007316;28;20034;-60
2022/08/09 06:14:40;;;;;;;13.77;3.53;;;;;;;31.52;34.07;98746.03;5009399;28;20021;-60
2022/08/09 06:17:05;;;;;;;13.88;3.60;;;;;;;32.01;33.49;98744.81;5009151;28;20696;-60
2022/08/09 06:19:31;;;;;;;13.77;3.50;;;;;;;31.95;33.05;98749.09;5007522;28;20109;-60
2022/08/09 06:21:56;;;;;;;15.85;3.75;;;;;;;33.08;31.80;98746.38;5007319;28;20128;-61
2022/08/09 06:24:22;;;;;;;15.02;3.78;;;;;;;32.88;31.08;98751.53;5012069;28;20075;-60
2022/08/09 06:26:47;;;;;;;13.60;3.42;;;;;;;32.35;32.51;98752.44;5014653;28;20033;-60
2022/08/09 06:29:12;;;;;;;16.23;3.60;;;;;;;29.90;33.40;98749.91;5015140;28;20033;-61
2022/08/09 06:31:38;;;;;;;17.52;3.72;;;;;;;29.68;34.49;98754.88;5014754;28;20041;-61
2022/08/09 06:34:04;;;;;;;13.23;3.47;;;;;;;32.25;31.88;98752.69;5009775;28;20048;-61
2022/08/09 06:36:29;;;;;;;16.15;3.83;;;;;;;33.20;30.92;98751.13;5010236;28;20046;-60
2022/08/09 06:38:55;;;;;;;11.95;3.28;;;;;;;29.24;34.69;98760.53;5012397;28;20096;-61
2022/08/09 06:41:20;;;;;;;14.50;3.33;;;;;;;32.09;32.05;98766.34;5012974;28;20136;-62
2022/08/09 06:43:47;;;;;;;13.73;3.47;;;;;;;31.44;32.47;98759.56;5001835;28;20075;-60
2022/08/09 06:46:12;;;;;;;12.98;3.20;;;;;;;33.71;30.00;98757.50;5012446;28;20127;-61
2022/08/09 06:48:40;;;;;;;13.35;3.40;;;;;;;33.80;29.07;98761.75;5013762;28;20057;-61
2022/08/09 06:51:05;;;;;;;10.35;2.70;;;;;;;35.54;27.83;98763.66;5014599;28;20029;-61
2022/08/09 06:53:31;;;;;;;15.00;3.38;;;;;;;31.03;32.57;98762.50;5013638;28;20052;-61
2022/08/09 06:55:58;;;;;;;10.02;3.17;;;;;;;31.53;31.66;98768.47;5015445;28;20083;-61
2022/08/09 06:58:23;;;;;;;11.18;3.20;;;;;;;33.03;30.89;98771.25;5013855;28;20036;-61
2022/08/09 07:00:48;;;;;;;11.82;3.33;;;;;;;34.25;28.75;98770.50;5009858;28;20041;-60
2022/08/09 07:03:14;;;;;;;10.50;3.05;;;;;;;36.36;26.61;98755.38;5007283;28;20029;-61
2022/08/09 07:05:39;;;;;;;11.25;2.83;;;;;;;33.98;28.49;98766.69;5015685;28;20427;-61
2022/08/09 07:08:04;;;;;;;12.55;3.45;;;;;;;30.78;32.20;98764.41;5015302;28;20057;-60
2022/08/09 07:10:31;;;;;;;10.77;2.97;;;;;;;29.82;33.75;98763.34;5013927;28;20049;-62
2022/08/09 07:12:57;;;;;;;15.40;3.53;;;;;;;33.46;30.06;98755.16;5011975;28;20033;-60
2022/08/09 07:15:22;;;;;;;8.80;2.80;;;;;;;32.30;30.83;98765.66;5013770;28;20037;-61
2022/08/09 07:17:48;;;;;;;10.55;2.63;;;;;;;33.06;30.21;98760.06;5015373;28;20095;-61
2022/08/09 07:20:14;;;;;;;9.70;3.03;;;;;;;34.02;29.04;98762.56;5012361;28;20108;-61
2022/08/09 07:22:40;;;;;;;8.57;2.60;;;;;;;33.31;30.20;98767.91;5015285;28;20495;-61
2022/08/09 07:25:06;;;;;;;13.98;3.97;;;;;;;33.83;29.24;98764.09;5013418;28;20034;-61
2022/08/09 07:27:31;;;;;;;11.18;2.72;;;;;;;33.68;29.19;98763.31;5014267;28;20041;-61
2022/08/09 07:29:57;;;;;;;9.25;3.05;;;;;;;35.25;27.82;98771.09;5014581;28;20711;-61
2022/08/09 07:32:23;;;;;;;9.40;2.45;;;;;;;35.96;26.87;98766.25;5016770;28;20068;-59
2022/08/09 07:34:48;;;;;;;8.77;2.80;;;;;;;36.26;25.76;98775.66;5020021;28;20394;-59
2022/08/09 07:37:13;;;;;;;11.35;3.25;;;;;;;33.80;29.03;98772.56;5015981;28;20036;-59
2022/08/09 07:39:39;;;;;;;7.32;2.40;;;;;;;37.00;25.99;98770.94;5013656;28;20392;-61
2022/08/09 07:42:05;;;;;;;8.45;2.83;;;;;;;37.36;25.73;98774.94;5013756;28;20034;-59
2022/08/09 07:44:30;;;;;;;7.28;2.30;;;;;;;37.40;25.20;98778.91;5014129;28;20033;-59
2022/08/09 07:46:56;;;;;;;7.38;2.40;;;;;;;34.65;27.65;98776.19;5012671;28;20083;-59
2022/08/09 07:49:21;;;;;;;15.15;2.70;;;;;;;36.69;25.79;98768.94;5009557;28;20057;-59
2022/08/09 07:51:46;;;;;;;8.82;2.42;;;;;;;37.90;24.50;98761.03;5014126;28;20041;-60
2022/08/09 07:54:12;;;;;;;7.95;2.28;;;;;;;35.56;26.61;98771.59;5015466;28;20029;-59
2022/08/09 07:56:38;;;;;;;7.70;2.50;;;;;;;38.11;24.52;98768.84;5014945;28;20628;-59
2022/08/09 07:59:03;;;;;;;6.53;2.40;;;;;;;37.38;25.21;98780.19;5012601;28;20095;-59
2022/08/09 08:01:28;;;;;;;8.35;2.78;;;;;;;37.58;24.89;98774.63;5014210;28;20041;-60
2022/08/09 08:03:54;;;;;;;6.45;2.40;;;;;;;37.20;24.74;98773.59;5013005;28;20025;-60
2022/08/09 08:06:20;;;;;;;6.93;2.30;;;;;;;38.38;24.41;98774.88;5011979;28;20476;-59
2022/08/09 08:08:45;;;;;;;5.82;2.25;;;;;;;40.19;22.85;98770.66;5012042;28;20779;-59
2022/08/09 08:11:11;;;;;;;7.95;2.17;;;;;;;40.10;21.83;98780.28;5014233;28;20045;-61
2022/08/09 08:13:36;;;;;;;7.15;2.28;;;;;;;35.72;25.51;98768.53;5015963;28;20506;-59
2022/08/09 08:16:02;;;;;;;6.18;2.25;;;;;;;35.69;25.82;98777.06;5016290;28;20103;-60
2022/08/09 08:18:27;;;;;;;7.07;2.38;;;;;;;35.08;25.87;98770.56;5014368;28;20028;-62
2022/08/09 08:20:53;;;;;;;6.93;2.20;;;;;;;36.80;24.65;98768.28;5012696;28;20056;-61
2022/08/09 08:23:19;;;;;;;5.18;2.10;;;;;;;37.79;23.83;98768.00;5013150;28;20491;-61
2022/08/09 08:25:46;;;;;;;6.22;2.45;;;;;;;39.17;22.09;98768.81;5014256;28;20048;-61
2022/08/09 08:28:12;;;;;;;9.20;2.70;;;;;;;36.50;25.06;98762.47;5012830;28;20137;-62
2022/08/09 08:30:38;;;;;;;6.03;2.20;;;;;;;37.10;24.71;98767.75;5012343;28;20052;-61
2022/08/09 08:33:03;;;;;;;6.20;2.13;;;;;;;37.17;24.27;98767.75;5012286;28;20030;-61
2022/08/09 08:35:29;;;;;;;7.82;2.50;;;;;;;37.28;24.35;98764.34;5011869;28;20120;-61
2022/08/09 08:37:55;;;;;;;8.80;2.60;;;;;;;37.48;23.51;98763.38;5013919;28;20434;-61
2022/08/09 08:40:20;;;;;;;6.35;2.20;;;;;;;37.71;22.99;98757.41;5013207;28;20719;-61
2022/08/09 08:42:46;;;;;;;11.48;2.67;;;;;;;38.10;23.32;98760.88;5011961;28;20052;-60
2022/08/09 08:45:12;;;;;;;10.60;2.90;;;;;;;35.19;25.48;98765.66;5007402;28;20129;-61
2022/08/09 08:47:39;;;;;;;9.75;2.58;;;;;;;36.25;25.40;98760.41;5013088;28;20100;-61
2022/08/09 08:50:05;;;;;;;10.77;3.03;;;;;;;37.50;23.77;98761.25;5013860;28;20679;-60
2022/08/09 08:52:32;;;;;;;9.55;2.53;;;;;;;33.72;26.47;98764.59;5015960;28;20606;-61
2022/08/09 08:54:59;;;;;;;10.77;3.05;;;;;;;35.54;25.38;98762.84;5011462;28;20123;-61
2022/08/09 08:57:26;;;;;;;8.75;2.60;;;;;;;36.63;24.08;98754.28;5012919;28;20507;-60
2022/08/09 08:59:52;;;;;;;15.77;3.70;;;;;;;35.39;25.25;98765.72;5005811;28;20282;-61
2022/08/09 09:02:22;;;;;;;15.63;3.80;;;;;;;33.78;26.63;98774.63;5007978;28;20897;-61
2022/08/09 09:04:51;;;;;;;12.43;2.78;;;;;;;33.97;25.87;98765.88;5009350;28;20061;-62
2022/08/09 09:07:18;;;;;;;13.10;3.58;;;;;;;32.83;27.58;98771.03;5011577;28;20103;-61
2022/08/09 09:09:48;;;;;;;11.32;3.13;;;;;;;34.32;25.83;98771.38;5011850;28;20116;-62
2022/08/09 09:12:19;;;;;;;18.23;3.35;;;;;;;36.64;24.14;98760.56;5011401;28;20042;-61
2022/08/09 09:14:46;;;;;;;15.57;3.88;;;;;;;37.64;23.43;98752.00;5009585;28;20029;-61
2022/08/09 09:17:12;;;;;;;21.98;4.45;;;;;;;36.84;24.17;98758.63;5006781;28;20037;-61
2022/08/09 09:19:38;;;;;;;11.80;3.05;;;;;;;38.10;23.59;98748.09;5009484;28;20034;-63
2022/08/09 09:22:03;;;;;;;11.65;3.15;;;;;;;36.47;24.46;98752.03;5010816;28;20068;-62
2022/08/09 09:24:43;;;;;;;13.98;3.55;;;;;;;34.94;25.04;98756.16;5011133;28;20026;-61
2022/08/09 09:27:12;;;;;;;12.93;3.20;;;;;;;33.19;27.04;98743.22;5008817;28;20503;-60
2022/08/09 09:29:40;;;;;;;11.68;3.20;;;;;;;33.74;25.24;98746.31;5010588;28;20017;-57
2022/08/09 09:32:06;;;;;;;12.75;3.20;;;;;;;34.77;24.47;98752.09;5008640;28;20034;-56
2022/08/09 09:34:33;;;;;;;13.05;3.13;;;;;;;36.53;23.34;98756.59;5010272;28;20033;-57
2022/08/09 09:36:59;;;;;;;13.25;3.42;;;;;;;35.12;24.24;98750.16;5013014;28;20049;-57
2022/08/09 09:39:26;;;;;;;16.27;3.70;;;;;;;35.35;24.05;98751.72;5011197;28;20030;-57
2022/08/09 09:41:52;;;;;;;18.33;3.75;;;;;;;35.05;24.23;98738.47;5010323;28;20141;-57
2022/08/09 09:44:24;;;;;;;15.90;3.63;;;;;;;35.04;24.83;98741.38;5010413;28;23061;-60
2022/08/09 09:46:55;;;;;;;22.83;4.47;;;;;;;33.75;26.31;98731.75;5009049;28;20055;-62
2022/08/09 09:49:22;;;;;;;16.75;3.92;;;;;;;33.90;26.24;98745.22;5010049;28;20040;-59
2022/08/09 09:51:47;;;;;;;18.35;3.85;;;;;;;34.76;25.72;98736.88;5010342;28;20064;-59
2022/08/09 09:54:18;;;;;;;16.83;3.63;;;;;;;34.29;25.82;98736.56;5012451;28;20832;-60
2022/08/09 09:56:46;;;;;;;13.02;3.38;;;;;;;32.91;26.20;98749.28;5009868;28;20042;-61
2022/08/09 09:59:13;;;;;;;18.58;3.83;;;;;;;33.43;26.40;98744.72;5009973;28;20050;-62
2022/08/09 10:01:41;;;;;;;17.10;3.78;;;;;;;34.18;25.62;98734.41;5011363;28;20041;-59
2022/08/09 10:04:15;;;;;;;14.50;3.20;;;;;;;34.39;25.53;98730.81;5014677;28;20942;-61
2022/08/09 10:06:42;;;;;;;21.70;4.68;;;;;;;33.69;26.21;98727.09;5012288;28;20549;-60
2022/08/09 10:09:09;;;;;;;15.05;3.65;;;;;;;34.18;25.86;98734.41;5015780;28;20701;-60
2022/08/09 10:11:35;;;;;;;18.42;4.00;;;;;;;35.87;24.04;98731.16;5011644;28;20033;-60
2022/08/09 10:14:01;;;;;;;21.95;4.20;;;;;;;34.26;26.53;98730.72;5012112;28;20119;-61
2022/08/09 10:16:35;;;;;;;17.48;3.95;;;;;;;35.86;24.26;98726.78;5007827;28;20052;-61
2022/08/09 10:19:06;;;;;;;18.58;3.92;;;;;;;35.61;24.82;98726.53;5010906;28;20034;-60
2022/08/09 10:21:33;;;;;;;17.80;3.90;;;;;;;34.37;25.65;98722.91;5012047;28;20033;-62
2022/08/09 10:24:01;;;;;;;14.57;3.85;;;;;;;36.04;24.33;98730.72;5010506;28;20037;-60
2022/08/09 10:26:27;;;;;;;11.48;3.10;;;;;;;35.50;24.16;98725.25;5012748;28;20176;-61
2022/08/09 10:28:54;;;;;;;16.58;4.15;;;;;;;32.70;26.54;98717.66;5011791;28;20068;-60
2022/08/09 10:31:20;;;;;;;14.68;3.33;;;;;;;33.19;26.33;98714.31;5011195;28;20448;-60
2022/08/09 10:33:46;;;;;;;14.13;3.38;;;;;;;32.00;27.41;98722.41;5014588;28;20040;-59
2022/08/09 10:36:13;;;;;;;13.30;3.33;;;;;;;31.29;27.87;98713.66;5014983;28;20034;-60
2022/08/09 10:38:44;;;;;;;12.80;3.17;;;;;;;32.90;26.98;98717.06;5014233;28;20029;-58
2022/08/09 10:41:10;;;;;;;19.17;4.35;;;;;;;34.34;25.17;98717.88;5011468;28;20084;-60
2022/08/09 10:43:40;;;;;;;19.98;4.15;;;;;;;34.13;25.59;98712.47;5016552;28;20037;-60
2022/08/09 10:46:36;;;;;;;22.13;4.75;;;;;;;33.94;25.24;98709.44;5011243;28;20045;-60
2022/08/09 10:49:19;;;;;;;20.70;4.63;;;;;;;32.67;26.22;98704.53;5013881;28;20873;-59
2022/08/09 10:52:14;;;;;;;14.15;3.42;;;;;;;32.42;26.59;98704.78;5013765;28;20029;-60
2022/08/09 10:54:39;;;;;;;17.83;3.72;;;;;;;31.27;27.83;98699.53;4999793;28;20567;-58
2022/08/09 10:57:08;;;;;;;15.73;3.67;;;;;;;33.18;26.02;98715.34;5013795;28;20044;-59
2022/08/09 10:59:36;;;;;;;23.02;4.65;;;;;;;32.78;27.13;98704.03;5013664;28;20032;-59
2022/08/09 11:02:03;;;;;;;17.60;3.95;;;;;;;33.89;25.05;98698.34;5010579;28;20056;-59
2022/08/09 11:04:29;;;;;;;15.55;3.45;;;;;;;35.09;24.47;98700.91;5012532;28;20038;-60
2022/08/09 11:06:57;;;;;;;16.27;3.75;;;;;;;34.57;24.77;98703.19;5010821;28;20407;-59
2022/08/09 11:09:41;;;;;;;20.75;4.35;;;;;;;34.15;25.21;98692.31;5011851;28;20548;-57
2022/08/09 11:12:12;;;;;;;13.75;3.42;;;;;;;34.24;24.97;98687.59;5012696;28;20037;-59
2022/08/09 11:14:50;;;;;;;19.60;4.13;;;;;;;34.49;24.72;98687.94;5012825;28;20475;-59
2022/08/09 11:17:15;;;;;;;18.48;4.05;;;;;;;34.85;24.52;98694.19;5011620;28;20114;-58
2022/08/09 11:20:08;;;;;;;12.27;3.10;;;;;;;33.91;25.62;98688.19;5013494;28;20029;-58
2022/08/09 11:22:42;;;;;;;10.93;2.90;;;;;;;33.66;26.13;98684.25;5013387;28;20530;-59
2022/08/09 11:25:08;;;;;;;15.85;3.72;;;;;;;32.88;26.07;98686.69;5014115;28;20049;-58
2022/08/09 11:27:38;;;;;;;16.25;3.42;;;;;;;31.89;27.49;98679.66;5013373;28;20403;-59
2022/08/09 11:30:08;;;;;;;17.00;4.13;;;;;;;34.46;25.54;98687.50;5015149;28;20029;-60